createdAt,value
2022-11-25T00:01:31.275Z,10.30
2022-11-25T00:03:59.705Z,10.30
2022-11-25T00:06:32.990Z,10.30
2022-11-25T00:09:11.135Z,10.30
2022-11-25T00:11:41.375Z,10.30
2022-11-25T00:14:13.538Z,10.30
2022-11-25T00:16:44.980Z,10.30
2022-11-25T00:19:14.781Z,10.30
2022-11-25T00:21:41.648Z,10.30
2022-11-25T00:24:08.763Z,10.30
2022-11-25T00:26:36.711Z,10.30
2022-11-25T00:29:07.830Z,10.30
2022-11-25T00:31:37.976Z,10.30
2022-11-25T00:34:05.437Z,10.30
2022-11-25T00:36:35.493Z,10.30
2022-11-25T00:39:06.434Z,10.30
2022-11-25T00:41:52.196Z,10.20
2022-11-25T00:44:37.499Z,10.30
2022-11-25T00:47:18.179Z,10.20
2022-11-25T00:49:53.827Z,10.30
2022-11-25T00:52:25.247Z,10.30
2022-11-25T00:54:53.082Z,10.30
2022-11-25T00:57:22.733Z,10.30
2022-11-25T00:59:49.910Z,10.30
2022-11-25T01:02:18.071Z,10.30
2022-11-25T01:04:45.891Z,10.30
2022-11-25T01:07:16.035Z,10.30
2022-11-25T01:09:42.959Z,10.30
2022-11-25T01:12:09.856Z,10.20
2022-11-25T01:14:37.350Z,10.20
2022-11-25T01:17:04.773Z,10.20
2022-11-25T01:19:33.146Z,10.20
2022-11-25T01:22:00.269Z,10.20
2022-11-25T01:24:27.166Z,10.10
2022-11-25T01:26:55.768Z,10.10
2022-11-25T01:29:23.048Z,10.10
2022-11-25T01:31:50.364Z,10.00
2022-11-25T01:34:24.575Z,10.00
2022-11-25T01:36:51.693Z,10.00
2022-11-25T01:39:31.683Z,10.00
2022-11-25T01:41:59.870Z,10.00
2022-11-25T01:44:30.552Z,10.00
2022-11-25T01:47:04.915Z,10.00
2022-11-25T01:49:53.431Z,9.90
2022-11-25T01:52:32.529Z,9.90
2022-11-25T01:55:08.129Z,9.90
2022-11-25T01:57:47.637Z,9.90
2022-11-25T02:00:15.704Z,9.90
2022-11-25T02:02:46.807Z,9.90
2022-11-25T02:05:18.693Z,9.80
2022-11-25T02:07:48.912Z,9.90
2022-11-25T02:10:25.831Z,9.90
2022-11-25T02:12:53.380Z,9.90
2022-11-25T02:15:21.801Z,9.90
2022-11-25T02:17:49.341Z,9.90
2022-11-25T02:20:20.702Z,9.90
2022-11-25T02:23:16.191Z,9.90
2022-11-25T02:25:46.846Z,9.90
2022-11-25T02:28:23.133Z,9.90
2022-11-25T02:30:50.738Z,10.00
2022-11-25T02:33:19.430Z,9.90
2022-11-25T02:36:14.836Z,10.00
2022-11-25T02:38:48.154Z,10.00
2022-11-25T02:41:26.342Z,9.90
2022-11-25T02:43:58.887Z,9.90
2022-11-25T02:46:27.471Z,9.90
2022-11-25T02:49:12.487Z,9.90
2022-11-25T02:51:44.863Z,9.90
2022-11-25T02:54:14.498Z,9.90
2022-11-25T02:56:41.637Z,9.90
2022-11-25T02:59:09.197Z,9.80
2022-11-25T03:01:38.141Z,9.80
2022-11-25T03:04:07.315Z,9.80
2022-11-25T03:06:34.678Z,9.80
2022-11-25T03:09:01.676Z,9.80
2022-11-25T03:11:46.933Z,9.70
2022-11-25T03:14:15.071Z,9.70
2022-11-25T03:16:43.594Z,9.70
2022-11-25T03:19:10.631Z,9.70
2022-11-25T03:21:37.552Z,9.70
2022-11-25T03:24:04.654Z,9.70
2022-11-25T03:26:31.556Z,9.70
2022-11-25T03:28:58.455Z,9.70
2022-11-25T03:31:25.460Z,9.70
2022-11-25T03:33:52.461Z,9.70
2022-11-25T03:36:21.059Z,9.70
2022-11-25T03:38:48.127Z,9.70
2022-11-25T03:41:15.045Z,9.70
2022-11-25T03:43:42.275Z,9.70
2022-11-25T03:46:09.177Z,9.70
2022-11-25T03:48:36.455Z,9.70
2022-11-25T03:51:03.405Z,9.70
2022-11-25T03:53:30.498Z,9.60
2022-11-25T03:56:00.161Z,9.60
2022-11-25T03:58:27.075Z,9.50
2022-11-25T04:00:59.350Z,9.50
2022-11-25T04:03:26.283Z,9.50
2022-11-25T04:05:53.190Z,9.50
2022-11-25T04:08:20.937Z,9.50
2022-11-25T04:10:51.851Z,9.40
2022-11-25T04:13:22.825Z,9.40
2022-11-25T04:15:52.140Z,9.40
2022-11-25T04:18:20.362Z,9.40
2022-11-25T04:20:51.262Z,9.40
2022-11-25T04:23:18.167Z,9.50
2022-11-25T04:25:53.537Z,9.40
2022-11-25T04:28:26.381Z,9.50
2022-11-25T04:30:53.367Z,9.50
2022-11-25T04:33:20.271Z,9.50
2022-11-25T04:35:48.538Z,9.50
2022-11-25T04:38:15.453Z,9.50
2022-11-25T04:40:42.759Z,9.50
2022-11-25T04:43:19.638Z,9.50
2022-11-25T04:46:20.126Z,9.50
2022-11-25T04:48:49.994Z,9.60
2022-11-25T04:51:17.275Z,9.60
2022-11-25T04:53:45.775Z,9.60
2022-11-25T04:56:19.515Z,9.60
2022-11-25T04:59:08.233Z,9.60
2022-11-25T05:01:39.138Z,9.60
2022-11-25T05:04:31.958Z,9.60
2022-11-25T05:06:58.847Z,9.60
2022-11-25T05:09:26.198Z,9.60
2022-11-25T05:12:05.969Z,9.70
2022-11-25T05:14:34.882Z,9.60
2022-11-25T05:17:04.055Z,9.70
2022-11-25T05:19:31.371Z,9.60
2022-11-25T05:21:58.354Z,9.60
2022-11-25T05:24:26.045Z,9.60
2022-11-25T05:26:53.885Z,9.60
2022-11-25T05:29:21.062Z,9.60
2022-11-25T05:31:48.419Z,9.60
2022-11-25T05:34:16.118Z,9.50
2022-11-25T05:36:44.431Z,9.50
2022-11-25T05:39:12.042Z,9.50
2022-11-25T05:42:04.921Z,9.40
2022-11-25T05:44:31.994Z,9.40
2022-11-25T05:46:59.118Z,9.40
2022-11-25T05:49:26.061Z,9.40
2022-11-25T05:51:52.948Z,9.30
2022-11-25T05:54:22.474Z,9.30
2022-11-25T05:56:50.122Z,9.30
2022-11-25T05:59:31.633Z,9.30
2022-11-25T06:02:05.219Z,9.30
2022-11-25T06:04:32.706Z,9.30
2022-11-25T06:06:59.651Z,9.20
2022-11-25T06:09:26.620Z,9.20
2022-11-25T06:11:53.577Z,9.20
2022-11-25T06:14:20.482Z,9.20
2022-11-25T06:16:49.308Z,9.20
2022-11-25T06:19:38.773Z,9.20
2022-11-25T06:22:06.591Z,9.20
2022-11-25T06:24:35.035Z,9.20
2022-11-25T06:27:06.205Z,9.10
2022-11-25T06:29:35.664Z,9.10
2022-11-25T06:32:03.023Z,9.10
2022-11-25T06:34:55.916Z,9.10
2022-11-25T06:37:46.059Z,9.10
2022-11-25T06:40:13.244Z,9.10
2022-11-25T06:42:40.451Z,9.10
2022-11-25T06:45:08.180Z,9.10
2022-11-25T06:47:35.086Z,9.10
2022-11-25T06:50:01.996Z,9.10
2022-11-25T06:52:31.628Z,9.10
2022-11-25T06:54:58.582Z,9.10
2022-11-25T06:57:25.508Z,9.20
2022-11-25T06:59:52.482Z,9.20
2022-11-25T07:02:19.603Z,9.20
2022-11-25T07:04:46.549Z,9.20
2022-11-25T07:07:13.498Z,9.20
2022-11-25T07:09:40.584Z,9.20
2022-11-25T07:12:07.679Z,9.20
2022-11-25T07:14:34.859Z,9.20
2022-11-25T07:17:01.993Z,9.30
2022-11-25T07:19:33.244Z,9.20
2022-11-25T07:22:00.121Z,9.20
2022-11-25T07:24:27.190Z,9.20
2022-11-25T07:26:54.061Z,9.20
2022-11-25T07:29:50.429Z,9.20
2022-11-25T07:32:10.788Z,9.30
2022-11-25T07:34:38.302Z,9.30
2022-11-25T07:37:05.178Z,9.30
2022-11-25T07:39:32.098Z,9.30
2022-11-25T07:41:58.960Z,9.30
2022-11-25T07:44:25.908Z,9.30
2022-11-25T07:47:00.476Z,9.30
2022-11-25T07:49:27.387Z,9.30
2022-11-25T07:51:59.567Z,9.30
2022-11-25T07:54:26.810Z,9.40
2022-11-25T07:56:53.791Z,9.40
2022-11-25T07:59:23.059Z,9.40
2022-11-25T08:01:55.283Z,9.40
2022-11-25T08:04:23.219Z,9.50
2022-11-25T08:06:51.914Z,9.50
2022-11-25T08:09:22.371Z,9.50
2022-11-25T08:11:49.723Z,9.60
2022-11-25T08:14:17.556Z,9.60
2022-11-25T08:16:44.868Z,9.60
2022-11-25T08:19:15.810Z,9.60
2022-11-25T08:21:43.230Z,9.70
2022-11-25T08:24:20.229Z,9.70
2022-11-25T08:26:47.988Z,9.80
2022-11-25T08:29:17.012Z,9.80
2022-11-25T08:31:44.102Z,9.80
2022-11-25T08:34:22.948Z,9.80
2022-11-25T08:36:53.506Z,9.90
2022-11-25T08:39:50.410Z,9.90
2022-11-25T08:42:08.884Z,9.90
2022-11-25T08:44:36.304Z,9.90
2022-11-25T08:47:03.301Z,9.80
2022-11-25T08:49:32.735Z,9.80
2022-11-25T08:52:02.986Z,9.80
2022-11-25T08:54:30.654Z,9.80
2022-11-25T08:56:57.527Z,9.80
2022-11-25T08:59:25.207Z,9.80
2022-11-25T09:01:52.279Z,9.90
2022-11-25T09:04:19.259Z,9.80
2022-11-25T09:06:46.192Z,9.80
2022-11-25T09:09:13.063Z,9.80
2022-11-25T09:11:40.100Z,9.80
2022-11-25T09:14:07.113Z,9.80
2022-11-25T09:16:34.268Z,9.80
2022-11-25T09:19:01.277Z,9.80
2022-11-25T09:21:28.272Z,9.80
2022-11-25T09:23:55.339Z,9.80
2022-11-25T09:26:28.927Z,9.80
2022-11-25T09:28:56.612Z,9.90
2022-11-25T09:31:24.300Z,9.80
2022-11-25T09:33:51.199Z,9.80
2022-11-25T09:36:19.624Z,9.80
2022-11-25T09:38:46.874Z,9.80
2022-11-25T09:41:52.112Z,9.80
2022-11-25T09:45:14.445Z,9.80
2022-11-25T09:48:23.248Z,9.90
2022-11-25T09:51:17.508Z,9.90
2022-11-25T09:53:54.169Z,9.90
2022-11-25T09:56:42.787Z,9.90
2022-11-25T09:59:19.109Z,10.00
2022-11-25T10:02:02.229Z,10.00
2022-11-25T10:04:44.530Z,10.10
2022-11-25T10:07:21.565Z,10.10
2022-11-25T10:09:48.506Z,10.10
2022-11-25T10:12:32.919Z,10.10
2022-11-25T10:15:13.946Z,10.20
2022-11-25T10:17:50.074Z,10.20
2022-11-25T10:20:25.594Z,10.30
2022-11-25T10:22:57.288Z,10.30
2022-11-25T10:25:36.858Z,10.30
2022-11-25T10:28:36.454Z,10.30
2022-11-25T10:31:20.817Z,10.40
2022-11-25T10:33:53.096Z,10.40
2022-11-25T10:36:40.461Z,10.40
2022-11-25T10:39:24.619Z,10.40
2022-11-25T10:41:55.795Z,10.50
2022-11-25T10:44:35.384Z,10.40
2022-11-25T10:47:31.557Z,10.50
2022-11-25T10:50:20.663Z,10.50
2022-11-25T10:52:57.792Z,10.40
2022-11-25T10:55:31.609Z,10.40
2022-11-25T10:58:00.038Z,10.40
2022-11-25T11:00:38.884Z,10.40
2022-11-25T11:03:23.407Z,10.40
2022-11-25T11:05:53.194Z,10.40
2022-11-25T11:08:37.536Z,10.50
2022-11-25T11:11:21.504Z,10.50
2022-11-25T11:13:50.819Z,10.50
2022-11-25T11:16:41.953Z,10.50
2022-11-25T11:19:26.588Z,10.60
2022-11-25T11:21:56.211Z,10.60
2022-11-25T11:24:32.171Z,10.60
2022-11-25T11:27:25.286Z,10.60
2022-11-25T11:30:13.738Z,10.60
2022-11-25T11:32:45.273Z,10.70
2022-11-25T11:35:41.650Z,10.70
2022-11-25T11:38:26.603Z,10.80
2022-11-25T11:41:04.585Z,10.90
2022-11-25T11:44:07.882Z,10.90
2022-11-25T11:47:15.529Z,11.00
2022-11-25T11:50:27.019Z,11.10
2022-11-25T11:53:23.517Z,11.10
2022-11-25T11:56:36.539Z,11.20
2022-11-25T11:59:35.579Z,11.20
2022-11-25T12:02:24.420Z,11.20
2022-11-25T12:05:05.253Z,11.30
2022-11-25T12:07:52.117Z,11.30
2022-11-25T12:10:32.875Z,11.30
2022-11-25T12:13:43.020Z,11.40
2022-11-25T12:16:27.814Z,11.40
2022-11-25T12:19:24.359Z,11.40
2022-11-25T12:22:07.869Z,11.40
2022-11-25T12:24:49.954Z,11.40
2022-11-25T12:27:36.277Z,11.50
2022-11-25T12:30:21.269Z,11.40
2022-11-25T12:33:18.132Z,11.40
2022-11-25T12:36:06.659Z,11.40
2022-11-25T12:38:46.568Z,11.40
2022-11-25T12:41:42.516Z,11.40
2022-11-25T12:44:20.112Z,11.40
2022-11-25T12:46:50.375Z,11.40
2022-11-25T12:49:23.905Z,11.40
2022-11-25T12:52:17.963Z,11.40
2022-11-25T12:55:18.152Z,11.50
2022-11-25T12:58:24.246Z,11.40
2022-11-25T13:01:39.061Z,11.40
2022-11-25T13:04:44.683Z,11.30
2022-11-25T13:07:56.584Z,11.30
2022-11-25T13:10:59.375Z,11.20
2022-11-25T13:14:25.377Z,11.20
2022-11-25T13:16:54.862Z,11.20
2022-11-25T13:19:22.712Z,11.20
2022-11-25T13:22:06.429Z,11.10
2022-11-25T13:24:39.390Z,11.10
2022-11-25T13:27:40.207Z,11.10
2022-11-25T13:30:32.786Z,11.10
2022-11-25T13:33:11.877Z,11.00
2022-11-25T13:35:54.715Z,11.00
2022-11-25T13:38:30.472Z,11.00
2022-11-25T13:41:01.179Z,11.00
2022-11-25T13:43:28.352Z,11.00
2022-11-25T13:45:56.338Z,11.00
2022-11-25T13:48:32.463Z,10.90
2022-11-25T13:51:26.959Z,10.90
2022-11-25T13:54:04.900Z,10.80
2022-11-25T13:56:37.710Z,10.80
2022-11-25T13:59:10.562Z,10.80
2022-11-25T14:01:52.979Z,10.70
2022-11-25T14:04:41.024Z,10.60
2022-11-25T14:07:33.959Z,10.50
2022-11-25T14:10:13.373Z,10.50
2022-11-25T14:13:22.103Z,10.50
2022-11-25T14:16:16.566Z,10.40
2022-11-25T14:19:52.466Z,10.40
2022-11-25T14:23:02.788Z,10.40
2022-11-25T14:25:44.356Z,10.40
2022-11-25T14:28:56.902Z,10.40
2022-11-25T14:31:45.476Z,10.40
2022-11-25T14:34:27.271Z,10.40
2022-11-25T14:37:12.510Z,10.40
2022-11-25T14:40:10.253Z,10.40
2022-11-25T14:42:42.288Z,10.40
2022-11-25T14:45:29.717Z,10.40
2022-11-25T14:47:57.144Z,10.30
2022-11-25T14:50:34.719Z,10.30
2022-11-25T14:53:11.301Z,10.30
2022-11-25T14:55:38.419Z,10.30
2022-11-25T14:58:05.276Z,10.30
2022-11-25T15:00:32.176Z,10.20
2022-11-25T15:03:07.268Z,10.20
2022-11-25T15:05:37.489Z,10.20
2022-11-25T15:08:14.737Z,10.10
2022-11-25T15:10:55.091Z,10.10
2022-11-25T15:13:46.762Z,10.10
2022-11-25T15:16:23.208Z,10.10
2022-11-25T15:18:55.658Z,10.10
2022-11-25T15:21:33.085Z,10.00
2022-11-25T15:24:00.739Z,10.00
2022-11-25T15:26:31.727Z,10.00
2022-11-25T15:29:11.333Z,10.00
2022-11-25T15:31:41.485Z,10.00
2022-11-25T15:34:13.293Z,10.00
2022-11-25T15:36:41.092Z,10.10
2022-11-25T15:39:25.877Z,10.10
2022-11-25T15:41:57.377Z,10.10
2022-11-25T15:44:48.184Z,10.00
2022-11-25T15:47:28.400Z,10.00
2022-11-25T15:50:30.059Z,10.10
2022-11-25T15:53:00.319Z,10.10
2022-11-25T15:55:38.437Z,10.10
2022-11-25T15:58:18.995Z,10.10
2022-11-25T16:01:07.267Z,10.00
2022-11-25T16:03:35.441Z,10.00
2022-11-25T16:06:02.585Z,10.00
2022-11-25T16:08:37.398Z,10.00
2022-11-25T16:11:19.245Z,10.00
2022-11-25T16:13:51.063Z,9.90
2022-11-25T16:16:25.494Z,9.90
2022-11-25T16:19:16.866Z,9.90
2022-11-25T16:21:53.071Z,9.90
2022-11-25T16:24:49.771Z,9.90
2022-11-25T16:27:29.927Z,9.80
2022-11-25T16:30:16.373Z,9.80
2022-11-25T16:32:43.273Z,9.70
2022-11-25T16:35:21.733Z,9.70
2022-11-25T16:37:49.797Z,9.80
2022-11-25T16:40:18.568Z,9.70
2022-11-25T16:42:49.936Z,9.70
2022-11-25T16:45:22.955Z,9.70
2022-11-25T16:47:50.102Z,9.70
2022-11-25T16:50:19.458Z,9.80
2022-11-25T16:52:46.560Z,9.80
2022-11-25T16:55:14.154Z,9.80
2022-11-25T16:57:42.752Z,9.80
2022-11-25T17:00:16.871Z,9.90
2022-11-25T17:02:44.996Z,9.90
2022-11-25T17:05:20.036Z,9.90
2022-11-25T17:07:48.246Z,9.90
2022-11-25T17:10:15.190Z,10.00
2022-11-25T17:12:44.155Z,10.00
2022-11-25T17:15:21.201Z,10.00
2022-11-25T17:17:49.278Z,10.00
2022-11-25T17:20:21.619Z,10.00
2022-11-25T17:22:49.694Z,9.90
2022-11-25T17:25:16.638Z,9.90
2022-11-25T17:27:46.083Z,9.80
2022-11-25T17:30:24.760Z,9.80
2022-11-25T17:33:04.938Z,9.80
2022-11-25T17:35:31.822Z,9.80
2022-11-25T17:38:00.382Z,9.70
2022-11-25T17:40:27.464Z,9.70
2022-11-25T17:42:54.386Z,9.80
2022-11-25T17:45:21.835Z,9.80
2022-11-25T17:47:49.019Z,9.80
2022-11-25T17:50:25.559Z,9.80
2022-11-25T17:52:52.846Z,9.90
2022-11-25T17:55:21.834Z,9.90
2022-11-25T17:57:49.715Z,9.90
2022-11-25T18:00:21.089Z,10.00
2022-11-25T18:02:48.259Z,10.00
2022-11-25T18:05:26.771Z,10.10
2022-11-25T18:07:54.235Z,10.10
2022-11-25T18:10:25.696Z,10.10
2022-11-25T18:12:55.454Z,10.10
2022-11-25T18:15:30.460Z,10.20
2022-11-25T18:18:19.206Z,10.20
2022-11-25T18:20:46.098Z,10.20
2022-11-25T18:23:13.008Z,10.30
2022-11-25T18:25:40.593Z,10.30
2022-11-25T18:28:07.769Z,10.30
2022-11-25T18:30:36.296Z,10.30
2022-11-25T18:33:06.153Z,10.40
2022-11-25T18:35:36.471Z,10.40
2022-11-25T18:38:04.742Z,10.40
2022-11-25T18:40:32.255Z,10.40
2022-11-25T18:43:02.621Z,10.40
2022-11-25T18:45:37.060Z,10.40
2022-11-25T18:48:17.027Z,10.40
2022-11-25T18:50:45.470Z,10.40
2022-11-25T18:53:13.745Z,10.40
2022-11-25T18:55:40.983Z,10.30
2022-11-25T18:58:21.766Z,10.30
2022-11-25T19:00:51.312Z,10.30
2022-11-25T19:03:22.712Z,10.30
2022-11-25T19:05:50.236Z,10.40
2022-11-25T19:08:18.669Z,10.50
2022-11-25T19:10:47.428Z,10.50
2022-11-25T19:13:33.489Z,10.50
2022-11-25T19:16:12.154Z,10.60
2022-11-25T19:18:39.517Z,10.60
2022-11-25T19:21:06.503Z,10.60
2022-11-25T19:23:35.939Z,10.60
2022-11-25T19:26:12.426Z,10.60
2022-11-25T19:28:39.397Z,10.60
2022-11-25T19:31:06.758Z,10.50
2022-11-25T19:33:37.078Z,10.50
2022-11-25T19:36:05.647Z,10.50
2022-11-25T19:38:33.062Z,10.50
2022-11-25T19:40:59.969Z,10.40
2022-11-25T19:43:27.076Z,10.40
2022-11-25T19:45:56.289Z,10.40
2022-11-25T19:48:26.953Z,10.40
2022-11-25T19:50:59.465Z,10.40
2022-11-25T19:53:33.189Z,10.40
2022-11-25T19:56:04.111Z,10.40
2022-11-25T19:58:31.567Z,10.40
2022-11-25T20:01:02.584Z,10.40
2022-11-25T20:03:31.321Z,10.40
2022-11-25T20:05:58.550Z,10.40
2022-11-25T20:08:28.122Z,10.40
2022-11-25T20:10:56.572Z,10.40
2022-11-25T20:13:25.935Z,10.50
2022-11-25T20:15:53.849Z,10.50
2022-11-25T20:18:23.669Z,10.50
2022-11-25T20:21:00.384Z,10.50
2022-11-25T20:23:43.629Z,10.60
2022-11-25T20:26:27.987Z,10.60
2022-11-25T20:28:54.874Z,10.60
2022-11-25T20:31:25.136Z,10.60
2022-11-25T20:33:54.392Z,10.70
2022-11-25T20:36:29.331Z,10.70
2022-11-25T20:38:58.805Z,10.70
2022-11-25T20:41:28.081Z,10.80
2022-11-25T20:43:56.735Z,10.80
2022-11-25T20:46:31.430Z,10.80
2022-11-25T20:49:06.659Z,10.80
2022-11-25T20:51:34.032Z,10.90
2022-11-25T20:54:01.327Z,10.90
2022-11-25T20:56:29.446Z,11.00
2022-11-25T20:58:56.960Z,11.00
2022-11-25T21:01:25.094Z,11.00
2022-11-25T21:03:52.081Z,11.00
2022-11-25T21:06:26.625Z,11.10
2022-11-25T21:08:56.490Z,11.10
2022-11-25T21:11:23.567Z,11.10
2022-11-25T21:13:52.010Z,11.00
2022-11-25T21:16:18.997Z,11.00
2022-11-25T21:18:45.923Z,11.00
2022-11-25T21:21:34.878Z,11.00
2022-11-25T21:24:25.295Z,11.00
2022-11-25T21:26:52.343Z,11.00
2022-11-25T21:29:19.598Z,10.90
2022-11-25T21:31:46.556Z,10.90
2022-11-25T21:34:14.175Z,10.90
2022-11-25T21:36:41.990Z,10.90
2022-11-25T21:39:27.127Z,10.90
2022-11-25T21:41:55.261Z,10.80
2022-11-25T21:44:31.497Z,10.80
2022-11-25T21:46:58.472Z,10.80
2022-11-25T21:49:26.683Z,10.80
2022-11-25T21:51:53.599Z,10.80
2022-11-25T21:54:20.510Z,10.80
2022-11-25T21:56:47.370Z,10.80
2022-11-25T21:59:19.602Z,10.70
2022-11-25T22:01:47.485Z,10.70
2022-11-25T22:04:16.664Z,10.70
2022-11-25T22:06:43.927Z,10.70
2022-11-25T22:09:11.669Z,10.70
2022-11-25T22:11:50.204Z,10.70
2022-11-25T22:14:34.442Z,10.70
2022-11-25T22:17:04.991Z,10.70
2022-11-25T22:19:32.136Z,10.70
2022-11-25T22:21:59.063Z,10.70
2022-11-25T22:24:26.137Z,10.70
2022-11-25T22:26:57.708Z,10.70
2022-11-25T22:29:34.175Z,10.60
2022-11-25T22:32:02.415Z,10.60
2022-11-25T22:34:29.399Z,10.60
2022-11-25T22:36:56.323Z,10.50
2022-11-25T22:39:26.949Z,10.50
2022-11-25T22:42:06.812Z,10.50
2022-11-25T22:44:42.851Z,10.50
2022-11-25T22:47:23.123Z,10.40
2022-11-25T22:49:50.891Z,10.50
2022-11-25T22:52:25.619Z,10.40
2022-11-25T22:54:52.874Z,10.40
2022-11-25T22:57:20.226Z,10.40
2022-11-25T22:59:47.098Z,10.40
2022-11-25T23:02:26.755Z,10.40
2022-11-25T23:04:55.912Z,10.40
2022-11-25T23:07:23.895Z,10.40
2022-11-25T23:09:51.251Z,10.30
2022-11-25T23:12:18.676Z,10.30
2022-11-25T23:14:45.690Z,10.30
2022-11-25T23:17:25.225Z,10.40
2022-11-25T23:19:53.375Z,10.40
2022-11-25T23:22:20.617Z,10.40
2022-11-25T23:24:48.876Z,10.40
2022-11-25T23:27:16.296Z,10.40
2022-11-25T23:29:43.228Z,10.40
2022-11-25T23:32:18.710Z,10.40
2022-11-25T23:34:46.014Z,10.50
2022-11-25T23:37:13.920Z,10.50
2022-11-25T23:39:41.075Z,10.50
2022-11-25T23:42:19.020Z,10.50
2022-11-25T23:44:46.182Z,10.50
2022-11-25T23:47:19.043Z,10.50
2022-11-25T23:49:48.874Z,10.60
2022-11-25T23:52:22.262Z,10.60
2022-11-25T23:54:51.342Z,10.60
2022-11-25T23:57:21.829Z,10.60
2022-11-25T23:59:49.743Z,10.60
